Time;durP1;ratioP1;P1;durP2;ratioP2;P2;SDS_P1;SDS_P2;PMS_P1;PMS_P2;Temp;Humidity;BMP_temperature;BMP_pressure;BME280_temperature;BME280_humidity;BME280_pressure;Samples;Min_cycle;Max_cycle;Signal;HPM_P1;HPM_P2
2022/05/14 00:00:37;;;;;;;4.00;2.47;;;12.80;99.90;;;;;;5047522;28;20189;-66
2022/05/14 00:03:03;;;;;;;3.07;2.73;;;13.00;99.90;;;;;;5050580;28;20216;-67
2022/05/14 00:05:29;;;;;;;4.13;2.87;;;13.00;99.90;;;;;;5053604;28;20749;-67
2022/05/14 00:07:56;;;;;;;4.77;3.17;;;12.80;99.90;;;;;;5048025;28;20192;-67
2022/05/14 00:10:23;;;;;;;2.65;2.45;;;12.70;99.90;;;;;;5050977;28;20440;-66
2022/05/14 00:13:05;;;;;;;6.40;2.60;;;12.80;99.90;;;;;;5050118;28;20195;-66
2022/05/14 00:15:42;;;;;;;3.75;2.40;;;12.70;99.90;;;;;;5051611;28;20704;-66
2022/05/14 00:18:10;;;;;;;2.92;2.72;;;12.60;99.90;;;;;;5042914;28;20210;-66
2022/05/14 00:20:36;;;;;;;3.55;2.95;;;12.40;99.90;;;;;;5051720;28;20663;-67
2022/05/14 00:23:03;;;;;;;6.25;3.00;;;12.60;99.90;;;;;;5056869;28;20662;-65
2022/05/14 00:25:30;;;;;;;2.55;2.35;;;12.80;99.90;;;;;;5051107;28;20209;-65
2022/05/14 00:27:56;;;;;;;2.83;2.50;;;12.70;99.90;;;;;;5049904;28;20224;-65
2022/05/14 00:30:24;;;;;;;6.53;2.90;;;12.60;99.90;;;;;;5051129;28;20193;-66
2022/05/14 00:32:51;;;;;;;5.25;2.20;;;12.60;99.90;;;;;;5050100;28;20268;-66
2022/05/14 00:35:17;;;;;;;2.95;2.50;;;12.50;99.90;;;;;;5051243;28;20609;-67
2022/05/14 00:37:43;;;;;;;3.55;2.42;;;12.50;99.90;;;;;;5065841;28;20680;-65
2022/05/14 00:40:17;;;;;;;4.23;2.97;;;12.50;99.90;;;;;;5049695;28;20188;-65
2022/05/14 00:42:43;;;;;;;3.78;2.45;;;12.50;99.90;;;;;;5066806;28;20439;-66
2022/05/14 00:45:12;;;;;;;3.60;2.40;;;12.50;99.90;;;;;;5049313;28;20224;-65
2022/05/14 00:47:39;;;;;;;3.40;2.63;;;12.60;99.90;;;;;;5048219;28;20659;-66
2022/05/14 00:50:32;;;;;;;3.30;2.50;;;12.50;99.90;;;;;;5050075;28;20242;-66
2022/05/14 00:53:03;;;;;;;4.80;2.50;;;12.50;99.90;;;;;;5047364;28;20212;-67
2022/05/14 00:55:30;;;;;;;2.60;2.40;;;12.40;99.90;;;;;;5077886;28;20221;-65
2022/05/14 00:57:56;;;;;;;2.10;1.75;;;12.40;99.90;;;;;;5058097;28;20252;-65
2022/05/14 01:00:24;;;;;;;5.03;3.10;;;12.40;99.90;;;;;;5049635;28;20212;-66
2022/05/14 01:02:51;;;;;;;3.42;2.30;;;12.50;99.90;;;;;;5063042;28;20184;-66
2022/05/14 01:05:19;;;;;;;2.72;2.40;;;12.50;99.90;;;;;;5043625;28;20270;-66
2022/05/14 01:07:49;;;;;;;3.20;2.20;;;12.50;99.90;;;;;;5050215;28;20208;-66
2022/05/14 01:10:18;;;;;;;3.38;2.40;;;12.20;99.90;;;;;;5062236;28;20182;-66
2022/05/14 01:12:55;;;;;;;4.63;2.45;;;12.30;99.90;;;;;;5065504;28;20189;-67
2022/05/14 01:15:24;;;;;;;3.67;3.38;;;12.30;99.90;;;;;;5050103;28;20213;-66
2022/05/14 01:17:51;;;;;;;3.70;2.70;;;12.40;99.90;;;;;;5043667;28;20373;-66
2022/05/14 01:20:18;;;;;;;4.28;2.22;;;12.20;99.90;;;;;;5048865;28;20554;-67
2022/05/14 01:22:50;;;;;;;3.05;2.35;;;12.20;99.90;;;;;;5036221;28;20185;-67
2022/05/14 01:28:12;;;;;;;3.17;2.13;;;12.20;99.90;;;;;;5049815;28;20254;-66
2022/05/14 01:31:04;;;;;;;2.13;1.97;;;12.00;99.90;;;;;;5058733;28;20575;-66
2022/05/14 01:33:31;;;;;;;2.42;2.22;;;12.00;99.90;;;;;;5063375;28;20497;-66
2022/05/14 01:35:57;;;;;;;5.72;2.67;;;12.00;99.90;;;;;;5047835;28;20225;-66
2022/05/14 01:38:25;;;;;;;2.77;2.00;;;12.00;99.90;;;;;;5037731;28;20216;-66
2022/05/14 01:40:50;;;;;;;3.50;2.67;;;12.10;99.90;;;;;;5051200;28;20180;-67
2022/05/14 01:43:16;;;;;;;2.67;2.27;;;11.90;99.90;;;;;;5060003;28;20188;-67
2022/05/14 01:45:42;;;;;;;2.75;2.20;;;11.70;99.90;;;;;;5052862;28;20242;-66
2022/05/14 01:48:08;;;;;;;2.15;1.95;;;11.80;99.90;;;;;;5048095;28;20560;-66
2022/05/14 01:50:35;;;;;;;3.05;2.20;;;12.00;99.90;;;;;;5048311;28;20568;-66
2022/05/14 01:53:00;;;;;;;3.55;2.50;;;11.70;99.90;;;;;;5065083;28;20187;-66
2022/05/14 01:55:26;;;;;;;2.80;2.10;;;11.70;99.90;;;;;;5049416;28;20636;-66
2022/05/14 01:57:52;;;;;;;4.80;2.80;;;11.60;99.90;;;;;;5045658;28;20445;-67
2022/05/14 02:00:21;;;;;;;3.77;2.53;;;11.70;99.90;;;;;;5043962;28;20433;-65
2022/05/14 02:02:47;;;;;;;2.45;2.25;;;11.80;99.90;;;;;;5051749;28;20195;-68
2022/05/14 02:05:14;;;;;;;2.70;2.20;;;11.70;99.90;;;;;;5049987;28;20237;-68
2022/05/14 02:07:41;;;;;;;3.78;2.20;;;11.60;99.90;;;;;;5049824;28;20646;-68
2022/05/14 02:10:07;;;;;;;3.60;2.45;;;11.60;99.90;;;;;;5044296;28;20794;-67
2022/05/14 02:12:34;;;;;;;3.25;2.20;;;11.90;99.90;;;;;;5064589;28;20571;-69
2022/05/14 02:15:00;;;;;;;3.97;2.13;;;11.50;99.90;;;;;;5046574;28;20219;-68
2022/05/14 02:17:25;;;;;;;2.27;2.07;;;11.50;99.90;;;;;;5053431;28;20304;-68
2022/05/14 02:19:51;;;;;;;2.43;2.10;;;11.40;99.90;;;;;;5050529;28;20443;-68
2022/05/14 02:22:17;;;;;;;3.20;2.30;;;11.70;99.90;;;;;;5044252;28;20180;-68
2022/05/14 02:24:42;;;;;;;3.83;2.63;;;11.80;99.90;;;;;;5052931;28;20290;-66
2022/05/14 02:27:08;;;;;;;2.73;2.37;;;11.50;99.90;;;;;;5050756;28;20196;-68
2022/05/14 02:29:54;;;;;;;2.67;2.47;;;11.60;99.90;;;;;;5052289;28;20194;-67
2022/05/14 02:32:23;;;;;;;3.70;2.70;;;11.60;99.90;;;;;;5053419;28;20186;-68
2022/05/14 02:34:49;;;;;;;3.83;2.17;;;12.00;99.90;;;;;;5050989;28;20268;-65
2022/05/14 02:37:17;;;;;;;2.50;2.00;;;11.60;99.90;;;;;;5067483;28;20191;-66
2022/05/14 02:39:43;;;;;;;2.67;2.33;;;11.50;99.90;;;;;;5048323;28;20182;-67
2022/05/14 02:42:09;;;;;;;3.50;2.07;;;11.70;99.90;;;;;;5054528;28;20180;-66
2022/05/14 02:44:35;;;;;;;4.43;2.40;;;11.40;99.90;;;;;;5053275;28;20469;-68
2022/05/14 02:47:00;;;;;;;2.20;2.00;;;11.40;99.90;;;;;;5052921;28;20250;-65
2022/05/14 02:49:26;;;;;;;3.00;2.67;;;11.80;99.90;;;;;;5050548;28;20191;-68
2022/05/14 02:51:52;;;;;;;3.43;1.97;;;11.40;99.90;;;;;;5053345;28;20561;-66
2022/05/14 02:54:18;;;;;;;2.40;2.20;;;11.60;99.90;;;;;;5053127;28;20203;-67
2022/05/14 02:56:43;;;;;;;2.43;2.30;;;11.40;99.90;;;;;;5051642;28;20599;-67
2022/05/14 02:59:09;;;;;;;4.37;2.57;;;11.50;99.90;;;;;;5049870;28;20192;-66
2022/05/14 03:01:37;;;;;;;4.13;2.77;;;11.40;99.90;;;;;;5050135;28;20188;-66
2022/05/14 03:04:04;;;;;;;3.38;2.40;;;11.50;99.90;;;;;;5051701;28;20537;-67
2022/05/14 03:06:30;;;;;;;6.95;2.92;;;11.50;99.90;;;;;;5065890;28;20215;-67
2022/05/14 03:08:56;;;;;;;3.00;2.33;;;11.40;99.90;;;;;;5068633;28;20211;-66
2022/05/14 03:11:21;;;;;;;2.50;2.30;;;11.40;99.90;;;;;;5056178;28;20566;-66
2022/05/14 03:13:48;;;;;;;2.37;2.17;;;11.40;99.90;;;;;;5051460;28;20212;-67
2022/05/14 03:16:14;;;;;;;3.65;2.53;;;11.30;99.90;;;;;;5052351;28;20233;-66
2022/05/14 03:18:41;;;;;;;2.53;2.20;;;11.30;99.90;;;;;;5049007;28;20273;-65
2022/05/14 03:21:06;;;;;;;3.40;2.42;;;11.30;99.90;;;;;;5051077;28;20397;-66
2022/05/14 03:23:32;;;;;;;2.90;2.20;;;11.40;99.90;;;;;;5063128;28;20204;-67
2022/05/14 03:25:58;;;;;;;3.93;2.23;;;11.30;99.90;;;;;;5052898;28;20671;-66
2022/05/14 03:28:23;;;;;;;4.10;2.23;;;11.20;99.90;;;;;;5054624;28;20195;-66
2022/05/14 03:30:49;;;;;;;4.67;2.30;;;11.10;99.90;;;;;;5052827;28;20192;-67
2022/05/14 03:33:15;;;;;;;4.47;4.07;;;11.30;99.90;;;;;;5050971;28;20242;-66
2022/05/14 03:35:41;;;;;;;4.10;3.80;;;11.40;99.90;;;;;;5052759;28;20274;-66
2022/05/14 03:38:06;;;;;;;4.28;2.50;;;11.20;99.90;;;;;;5049037;28;20271;-67
2022/05/14 03:40:32;;;;;;;4.83;2.50;;;11.30;99.90;;;;;;5050561;28;20257;-66
2022/05/14 03:42:58;;;;;;;2.90;2.43;;;11.10;99.90;;;;;;5058703;28;20216;-66
2022/05/14 03:45:23;;;;;;;4.90;2.80;;;11.20;99.90;;;;;;5056755;28;20816;-66
2022/05/14 03:47:49;;;;;;;4.00;2.30;;;11.40;99.90;;;;;;5062471;28;20222;-66
2022/05/14 03:50:15;;;;;;;3.53;2.20;;;11.30;99.90;;;;;;5052470;28;20263;-67
2022/05/14 03:52:40;;;;;;;3.73;2.10;;;11.20;99.90;;;;;;5060707;28;20258;-67
2022/05/14 03:55:07;;;;;;;2.80;2.60;;;11.40;99.90;;;;;;5045626;28;20246;-66
2022/05/14 03:57:32;;;;;;;4.25;2.33;;;11.40;99.90;;;;;;5047821;28;20233;-67
2022/05/14 03:59:58;;;;;;;2.70;2.50;;;11.00;99.90;;;;;;5045523;28;20197;-66
2022/05/14 04:02:24;;;;;;;4.07;2.80;;;10.70;99.90;;;;;;5055376;28;20262;-66
2022/05/14 04:04:50;;;;;;;3.43;2.70;;;11.10;99.90;;;;;;5050852;28;20480;-66
2022/05/14 04:07:15;;;;;;;2.93;2.60;;;11.00;99.90;;;;;;5051673;28;20195;-66
2022/05/14 04:09:41;;;;;;;10.03;2.30;;;11.00;99.90;;;;;;5051838;28;20712;-65
2022/05/14 04:12:08;;;;;;;3.50;2.40;;;11.00;99.90;;;;;;5067155;28;20214;-66
2022/05/14 04:14:34;;;;;;;2.55;2.30;;;11.30;99.90;;;;;;5049506;28;20724;-67
2022/05/14 04:17:00;;;;;;;2.83;2.63;;;11.10;99.90;;;;;;5047678;28;20190;-66
2022/05/14 04:19:26;;;;;;;2.42;2.20;;;11.30;99.90;;;;;;5048936;28;20890;-66
2022/05/14 04:21:51;;;;;;;2.60;2.40;;;11.00;99.90;;;;;;5051192;28;20276;-67
2022/05/14 04:24:17;;;;;;;3.10;2.87;;;11.20;99.90;;;;;;5050765;28;20234;-67
2022/05/14 04:26:42;;;;;;;3.43;2.67;;;11.20;99.90;;;;;;5049910;28;20192;-66
2022/05/14 04:29:08;;;;;;;3.53;3.03;;;11.20;99.90;;;;;;5051270;28;20188;-66
2022/05/14 04:31:35;;;;;;;6.57;2.43;;;11.30;99.90;;;;;;5040732;28;20183;-66
2022/05/14 04:34:00;;;;;;;4.22;3.25;;;11.40;99.90;;;;;;5048952;28;20840;-67
2022/05/14 04:36:26;;;;;;;3.23;2.93;;;11.20;99.90;;;;;;5052657;28;20193;-67
2022/05/14 04:38:52;;;;;;;2.63;2.43;;;11.10;99.90;;;;;;5049365;28;20539;-67
2022/05/14 04:41:18;;;;;;;3.10;2.80;;;11.10;99.90;;;;;;5056127;28;20177;-66
2022/05/14 04:43:44;;;;;;;7.70;3.00;;;11.30;99.90;;;;;;5047365;28;20263;-66
2022/05/14 04:46:09;;;;;;;2.67;2.47;;;11.70;99.90;;;;;;5049797;28;20470;-66
2022/05/14 04:48:36;;;;;;;3.47;2.57;;;11.50;99.90;;;;;;5047589;28;20446;-66
2022/05/14 04:51:02;;;;;;;2.80;2.60;;;11.80;99.90;;;;;;5050378;28;20179;-66
2022/05/14 04:53:28;;;;;;;3.00;2.50;;;11.70;99.90;;;;;;5049163;28;20197;-67
2022/05/14 04:55:53;;;;;;;2.83;2.50;;;11.60;99.90;;;;;;5065337;28;20494;-68
2022/05/14 04:58:20;;;;;;;2.67;2.47;;;11.70;99.90;;;;;;5063464;28;20185;-67
2022/05/14 05:00:46;;;;;;;4.10;2.60;;;12.00;99.90;;;;;;5037193;28;20192;-68
2022/05/14 05:03:19;;;;;;;5.03;3.28;;;11.80;99.90;;;;;;5048871;28;20185;-66
2022/05/14 05:05:47;;;;;;;3.70;2.30;;;11.90;99.90;;;;;;5048797;28;20219;-68
2022/05/14 05:08:13;;;;;;;2.60;2.40;;;11.90;99.90;;;;;;5044931;28;20292;-67
2022/05/14 05:10:39;;;;;;;3.85;2.95;;;12.10;99.90;;;;;;5049279;28;20192;-66
2022/05/14 05:13:09;;;;;;;3.17;2.97;;;12.30;99.90;;;;;;5049165;28;20192;-66
2022/05/14 05:15:35;;;;;;;3.05;2.85;;;12.30;99.90;;;;;;5048583;28;20248;-67
2022/05/14 05:18:01;;;;;;;2.97;2.73;;;12.50;99.90;;;;;;5047681;28;20220;-66
2022/05/14 05:20:27;;;;;;;3.27;2.33;;;12.50;99.90;;;;;;5046259;28;20657;-65
2022/05/14 05:22:52;;;;;;;3.20;2.80;;;12.80;99.90;;;;;;5051146;28;20444;-67
2022/05/14 05:25:19;;;;;;;3.67;2.43;;;12.50;99.90;;;;;;5060257;28;20299;-67
2022/05/14 05:27:44;;;;;;;5.20;2.60;;;12.70;99.90;;;;;;5049825;28;20200;-67
2022/05/14 05:30:11;;;;;;;2.90;2.70;;;12.80;99.90;;;;;;5040818;28;20185;-67
2022/05/14 05:32:37;;;;;;;2.75;2.55;;;13.00;99.90;;;;;;5045861;28;20186;-68
2022/05/14 05:35:04;;;;;;;4.77;2.57;;;12.70;99.90;;;;;;5045836;28;20228;-66
2022/05/14 05:37:30;;;;;;;3.17;2.92;;;13.20;99.90;;;;;;5050203;28;20582;-67
2022/05/14 05:39:55;;;;;;;6.50;2.50;;;13.40;99.90;;;;;;5042685;28;20307;-67
2022/05/14 05:42:21;;;;;;;3.20;2.50;;;13.10;99.90;;;;;;5050377;28;20186;-67
2022/05/14 05:44:46;;;;;;;4.20;2.50;;;13.40;99.90;;;;;;5054371;28;20582;-68
2022/05/14 05:47:12;;;;;;;5.73;3.00;;;13.40;99.90;;;;;;5064397;28;20254;-66
2022/05/14 05:49:39;;;;;;;2.40;2.20;;;13.90;99.90;;;;;;5039982;28;20598;-67
2022/05/14 05:52:05;;;;;;;3.22;2.67;;;14.10;99.90;;;;;;5049977;28;20215;-67
2022/05/14 05:57:15;;;;;;;3.10;2.80;;;14.30;99.90;;;;;;5046434;28;20596;-67
2022/05/14 05:59:40;;;;;;;4.80;3.00;;;14.70;99.90;;;;;;5050146;28;20177;-68
2022/05/14 06:02:08;;;;;;;3.50;2.20;;;14.70;99.90;;;;;;5049357;28;20185;-68
2022/05/14 06:04:34;;;;;;;2.25;2.15;;;15.20;99.90;;;;;;5053012;28;20549;-66
2022/05/14 06:07:00;;;;;;;2.90;2.60;;;15.30;99.90;;;;;;5056429;28;20185;-67
2022/05/14 06:09:29;;;;;;;3.90;2.57;;;15.20;99.90;;;;;;5053660;28;20529;-67
2022/05/14 06:11:55;;;;;;;2.60;2.40;;;15.30;99.90;;;;;;5046212;28;20435;-67
2022/05/14 06:14:21;;;;;;;2.50;2.30;;;15.60;99.90;;;;;;5052969;28;20243;-67
2022/05/14 06:16:47;;;;;;;3.10;2.40;;;15.50;99.90;;;;;;5050572;28;20470;-67
2022/05/14 06:19:14;;;;;;;2.67;2.47;;;15.60;99.50;;;;;;5051097;28;20597;-67
2022/05/14 06:21:40;;;;;;;3.45;3.15;;;15.80;99.90;;;;;;5053476;28;20545;-69
2022/05/14 06:24:08;;;;;;;4.30;2.28;;;15.90;99.50;;;;;;5052414;28;20232;-68
2022/05/14 06:26:33;;;;;;;3.17;2.38;;;16.20;99.00;;;;;;5051624;28;20198;-68
2022/05/14 06:28:59;;;;;;;7.20;2.73;;;16.00;98.50;;;;;;5052901;28;20537;-68
2022/05/14 06:31:25;;;;;;;2.13;1.80;;;16.40;97.90;;;;;;5054750;28;20181;-68
2022/05/14 06:33:51;;;;;;;2.45;2.25;;;16.30;97.50;;;;;;5051747;28;20197;-68
2022/05/14 06:36:17;;;;;;;3.70;2.67;;;16.50;97.40;;;;;;5050487;28;20208;-66
2022/05/14 06:38:42;;;;;;;3.10;2.47;;;16.50;97.10;;;;;;5047193;28;20180;-68
2022/05/14 06:41:11;;;;;;;2.70;2.27;;;17.10;96.40;;;;;;5051688;28;20801;-66
2022/05/14 06:43:38;;;;;;;2.90;2.42;;;17.50;95.70;;;;;;5064952;28;20181;-67
2022/05/14 06:46:04;;;;;;;2.28;1.75;;;17.90;94.40;;;;;;5049543;28;20248;-65
2022/05/14 06:48:31;;;;;;;2.20;1.83;;;18.40;93.50;;;;;;5046767;28;20583;-61
2022/05/14 06:51:02;;;;;;;2.38;2.00;;;18.90;92.10;;;;;;5051211;28;20554;-61
2022/05/14 06:53:28;;;;;;;2.25;2.00;;;19.20;91.00;;;;;;5052639;28;20230;-62
2022/05/14 06:55:57;;;;;;;4.32;2.30;;;19.30;91.60;;;;;;5058463;28;20209;-64
2022/05/14 06:58:28;;;;;;;4.35;1.98;;;19.20;90.80;;;;;;5051172;28;20181;-65
2022/05/14 07:00:54;;;;;;;2.90;2.20;;;19.10;90.40;;;;;;5068314;28;20204;-67
2022/05/14 07:08:50;;;;;;;2.47;1.67;;;24.30;79.00;;;;;;5051665;28;20470;-68
2022/05/14 07:11:16;;;;;;;10.13;1.50;;;28.10;63.60;;;;;;5066943;28;20450;-75
2022/05/14 07:13:42;;;;;;;1.20;1.10;;;29.20;57.10;;;;;;5062942;28;21306;-72
2022/05/14 07:16:07;;;;;;;1.50;1.23;;;32.30;51.80;;;;;;5042583;28;20554;-73
2022/05/14 07:18:33;;;;;;;3.50;1.90;;;32.70;48.10;;;;;;5050625;28;20182;-71
2022/05/14 07:20:59;;;;;;;2.30;1.60;;;35.60;43.00;;;;;;5047979;28;20266;-70
2022/05/14 07:23:25;;;;;;;3.00;1.80;;;36.40;39.70;;;;;;5051205;28;20190;-69
2022/05/14 07:25:51;;;;;;;2.00;1.70;;;37.10;36.60;;;;;;5049133;28;20460;-69
2022/05/14 07:30:51;;;;;;;2.00;1.47;;;38.10;34.30;;;;;;5588580;22;20940;-83
2022/05/14 07:33:17;;;;;;;2.77;1.60;;;35.70;34.50;;;;;;5052027;28;20647;-88
2022/05/14 07:35:43;;;;;;;2.70;1.57;;;35.20;35.50;;;;;;5053564;28;20635;-86
2022/05/14 07:38:09;;;;;;;1.93;1.67;;;34.40;35.90;;;;;;5049447;28;20455;-81
2022/05/14 07:40:37;;;;;;;3.30;2.03;;;36.20;35.60;;;;;;5026317;28;20550;-85
2022/05/14 07:43:08;;;;;;;3.10;1.70;;;38.10;32.40;;;;;;5058107;28;20189;-89
2022/05/14 07:45:45;;;;;;;4.70;1.90;;;38.10;31.30;;;;;;5040918;28;20649;-91
2022/05/14 07:48:20;;;;;;;1.80;1.57;;;37.80;31.40;;;;;;5041085;28;20428;-87
2022/05/14 07:50:46;;;;;;;2.07;1.53;;;37.20;31.80;;;;;;5039495;28;20455;-86
2022/05/14 07:53:14;;;;;;;3.63;2.30;;;38.70;32.20;;;;;;5059426;28;20440;-86
2022/05/14 07:55:39;;;;;;;2.50;2.30;;;40.40;31.10;;;;;;5054685;28;20796;-84
2022/05/14 07:58:05;;;;;;;3.40;2.90;;;40.40;30.40;;;;;;5052055;28;20953;-82
2022/05/14 08:00:32;;;;;;;2.60;2.40;;;40.50;29.70;;;;;;5055508;28;20681;-82
2022/05/14 08:02:58;;;;;;;2.43;2.20;;;40.30;29.90;;;;;;5046402;28;20542;-79
2022/05/14 08:05:23;;;;;;;2.87;2.40;;;39.70;29.20;;;;;;5045420;28;20973;-85
2022/05/14 08:07:49;;;;;;;2.97;2.77;;;37.70;31.40;;;;;;5060883;28;20188;-87
2022/05/14 08:10:16;;;;;;;2.90;2.00;;;35.80;35.70;;;;;;5049971;28;20205;-85
2022/05/14 08:12:51;;;;;;;2.60;1.93;;;36.20;33.60;;;;;;5039579;28;20219;-86
2022/05/14 08:15:18;;;;;;;3.20;2.67;;;37.60;33.00;;;;;;5032751;28;20491;-84
2022/05/14 08:17:44;;;;;;;2.50;2.17;;;38.80;31.50;;;;;;5051750;28;20448;-84
2022/05/14 08:20:10;;;;;;;3.60;2.47;;;38.30;31.30;;;;;;5044763;28;20492;-83
2022/05/14 08:25:21;;;;;;;2.40;2.10;;;38.00;33.10;;;;;;5050681;28;20505;-82
2022/05/14 08:27:47;;;;;;;2.70;2.50;;;37.00;31.50;;;;;;5049151;28;20969;-83
2022/05/14 08:30:19;;;;;;;2.10;2.00;;;37.20;31.10;;;;;;5047371;28;20455;-84
2022/05/14 08:32:45;;;;;;;5.30;2.53;;;36.20;32.70;;;;;;5038631;28;20569;-83
2022/05/14 08:35:12;;;;;;;3.47;2.27;;;36.40;33.30;;;;;;5041641;28;20510;-85
2022/05/14 08:37:41;;;;;;;3.87;2.60;;;35.30;32.80;;;;;;5059967;28;20871;-85
2022/05/14 08:40:21;;;;;;;2.93;2.10;;;34.30;36.10;;;;;;5056022;28;20451;-82
2022/05/14 08:42:53;;;;;;;3.10;2.20;;;33.10;36.80;;;;;;5039778;28;20428;-84
2022/05/14 08:45:21;;;;;;;4.03;3.63;;;34.20;35.10;;;;;;5031896;28;21612;-84
2022/05/14 08:47:56;;;;;;;3.80;2.47;;;35.60;33.50;;;;;;5052692;28;20546;-84
2022/05/14 08:50:30;;;;;;;3.50;1.90;;;35.70;32.30;;;;;;5031710;28;20466;-83
2022/05/14 08:53:00;;;;;;;3.30;2.20;;;35.60;33.20;;;;;;5043722;28;20446;-84
2022/05/14 08:55:31;;;;;;;2.53;1.83;;;36.90;33.70;;;;;;5053857;28;20884;-82
2022/05/14 08:58:14;;;;;;;3.20;2.37;;;36.00;32.60;;;;;;5043785;28;20467;-83
2022/05/14 09:00:40;;;;;;;3.17;1.90;;;36.30;32.00;;;;;;5057998;28;20489;-82
2022/05/14 09:03:05;;;;;;;3.10;2.27;;;37.00;31.60;;;;;;5051489;28;20435;-81
2022/05/14 09:05:34;;;;;;;3.90;2.93;;;36.20;31.60;;;;;;5050823;28;20538;-81
2022/05/14 09:08:01;;;;;;;2.50;1.93;;;36.80;32.50;;;;;;5040303;28;20189;-82
2022/05/14 09:10:40;;;;;;;3.93;1.90;;;36.10;31.20;;;;;;5044926;28;20454;-82
2022/05/14 09:13:11;;;;;;;3.00;1.80;;;35.30;33.30;;;;;;5044090;28;20510;-93
2022/05/14 09:15:46;;;;;;;3.47;2.30;;;36.00;31.90;;;;;;5065335;28;20554;-93
2022/05/14 09:18:18;;;;;;;2.90;2.20;;;36.70;31.60;;;;;;5046345;28;20438;-90
2022/05/14 09:21:00;;;;;;;1.90;1.70;;;36.70;30.90;;;;;;5039264;28;20456;-86
2022/05/14 09:23:51;;;;;;;3.33;2.73;;;37.00;30.80;;;;;;5048504;28;20463;-88
2022/05/14 09:26:24;;;;;;;3.30;1.80;;;37.20;30.80;;;;;;5036699;28;20467;-86
2022/05/14 09:28:56;;;;;;;4.03;2.00;;;37.10;30.50;;;;;;5046311;28;20448;-87
2022/05/14 09:31:36;;;;;;;4.63;2.30;;;37.90;29.80;;;;;;5036285;28;20826;-84
2022/05/14 09:34:12;;;;;;;2.53;2.33;;;37.70;29.80;;;;;;5059863;28;20542;-86
2022/05/14 09:36:40;;;;;;;3.20;2.40;;;36.70;31.50;;;;;;5057342;28;20431;-87
2022/05/14 09:39:11;;;;;;;3.27;2.70;;;37.30;31.00;;;;;;5048566;28;20487;-85
2022/05/14 09:41:52;;;;;;;3.60;2.23;;;37.20;30.80;;;;;;5032128;28;20466;-85
2022/05/14 09:44:26;;;;;;;2.23;1.97;;;37.30;30.70;;;;;;5057866;28;20778;-90
2022/05/14 09:47:08;;;;;;;2.57;2.37;;;37.70;30.20;;;;;;5036582;28;20448;-87
2022/05/14 09:49:34;;;;;;;2.97;2.30;;;37.00;30.30;;;;;;5045526;28;20436;-87
2022/05/14 09:52:09;;;;;;;2.80;1.93;;;36.60;31.10;;;;;;5051456;28;20467;-86
2022/05/14 09:54:48;;;;;;;2.33;2.10;;;36.00;31.20;;;;;;5050783;28;20667;-83
2022/05/14 09:57:43;;;;;;;3.33;1.83;;;35.40;31.80;;;;;;5046577;28;20519;-84
2022/05/14 10:00:21;;;;;;;1.87;1.70;;;35.30;31.50;;;;;;5053024;28;20996;-84
2022/05/14 10:03:08;;;;;;;3.53;1.90;;;36.40;31.70;;;;;;5040626;28;20509;-82
2022/05/14 10:05:57;;;;;;;2.10;1.83;;;36.40;31.40;;;;;;5046472;28;20496;-81
2022/05/14 10:08:43;;;;;;;2.73;2.53;;;36.60;31.10;;;;;;5054231;28;20859;-81
2022/05/14 10:11:33;;;;;;;4.10;2.37;;;36.30;31.50;;;;;;5042595;28;20466;-84
2022/05/14 10:14:48;;;;;;;2.70;2.50;;;36.50;31.80;;;;;;5046450;28;20459;-83
2022/05/14 10:17:45;;;;;;;12.33;11.03;;;35.50;32.30;;;;;;5054181;28;20880;-85
2022/05/14 10:20:20;;;;;;;4.57;2.60;;;33.70;33.90;;;;;;5041986;28;20504;-83
2022/05/14 10:29:13;;;;;;;2.33;1.97;;;28.20;41.90;;;;;;5045882;28;20857;-84
2022/05/14 10:32:04;;;;;;;2.93;2.40;;;27.50;43.60;;;;;;5057840;28;20470;-84
2022/05/14 10:34:59;;;;;;;4.20;2.57;;;27.10;44.50;;;;;;5041794;28;20525;-84
2022/05/14 10:37:27;;;;;;;3.70;2.23;;;26.50;44.90;;;;;;5052310;28;20449;-83
2022/05/14 10:40:36;;;;;;;3.20;2.00;;;26.00;46.30;;;;;;5036864;28;20761;-85
2022/05/14 10:43:11;;;;;;;2.17;1.93;;;25.80;47.20;;;;;;4994006;28;21245;-83
2022/05/14 10:45:43;;;;;;;4.33;2.73;;;25.60;48.20;;;;;;5010585;28;20496;-82
2022/05/14 10:48:47;;;;;;;3.10;1.97;;;25.20;48.50;;;;;;5817016;22;21626;-81
2022/05/14 10:51:20;;;;;;;3.33;2.60;;;24.80;49.60;;;;;;5026437;28;20468;-80
2022/05/14 10:53:46;;;;;;;3.57;2.23;;;25.10;50.50;;;;;;5021631;28;20429;-86
